Decoded Metar for VVCR (CAMRANH in VIET NAM) (IATA:N/A) | Meteo·Mobile Aviation Weather
aviador You're here:

VVCR Decoded Metar

CAMRANH in VIET NAM
Report Time2019-07-23 02:30:00
UTC Time2019-07-23 02:45:45
Flight Rules vfr VFR
Wind110° at 06 kt
W.Decomp.*RWY 02: 6.0 kt RCW
Visibility9999 m
Phenomena:N/A
Clouds:Few 015 Hf
Expected CloudBase > 4,400 ft AGL from Temp-Dew spread
CeilingNone
Temp34°C (ISA +19)
Dew Point23°C (53% RH)
Heat Index39.4°C
QNH1007 hPa
Density Alt2,779 ft
Elevation39 ft
Report Wrong Elevation
Raw Report
METAR VVCR 230230Z 11006KT 9999 FEW015 34/23 Q1007 NOSIG=

Extra information for VVCR:More info

Metar Taf Metar & Taf Last 4 Metars F.Rules Stats Wind Profile Meteogram Temp Stats Airport Information Weather charts Add Link Nearby VenuesMetar ALERT Operation Metar Decoded Social comments